createdAt,value
2023-01-19T05:26:05.798Z,98627.50
2023-01-19T05:29:08.503Z,98624.22
2023-01-19T05:32:11.306Z,98645.59
2023-01-19T05:35:15.414Z,98645.44
2023-01-19T05:38:29.344Z,98659.19
2023-01-19T05:41:36.629Z,98654.03
2023-01-19T05:44:39.240Z,98643.06
2023-01-19T05:47:41.834Z,98636.25
2023-01-19T05:50:44.838Z,98635.25
2023-01-19T05:53:48.453Z,98636.25
2023-01-19T05:56:51.329Z,98637.16
2023-01-19T05:59:54.152Z,98620.94
2023-01-19T06:02:56.888Z,98605.41
2023-01-19T06:06:00.843Z,98600.78
2023-01-19T06:09:03.650Z,98612.38
2023-01-19T06:12:07.920Z,98607.09
2023-01-19T06:15:11.223Z,98604.63
2023-01-19T06:18:16.879Z,98612.22
2023-01-19T06:21:19.629Z,98643.09
2023-01-19T06:24:23.324Z,98656.69
2023-01-19T06:27:26.494Z,98642.06
2023-01-19T06:30:29.407Z,98636.75
2023-01-19T06:33:32.076Z,98636.66
2023-01-19T06:36:35.203Z,98612.06
2023-01-19T06:39:41.277Z,98619.69
2023-01-19T06:42:43.870Z,98628.31
2023-01-19T06:45:46.956Z,98638.34
2023-01-19T06:48:49.543Z,98635.28
2023-01-19T06:51:52.483Z,98637.69
2023-01-19T06:54:55.454Z,98644.41
2023-01-19T06:57:59.657Z,98639.28
2023-01-19T07:01:03.819Z,98643.50
2023-01-19T07:04:06.427Z,98650.94
2023-01-19T07:07:09.055Z,98663.69
2023-01-19T07:10:12.485Z,98652.56
2023-01-19T07:13:15.595Z,98659.19
2023-01-19T07:16:18.222Z,98650.81
2023-01-19T07:19:20.787Z,98645.66
2023-01-19T07:22:23.348Z,98641.53
2023-01-19T07:25:26.642Z,98645.78
2023-01-19T07:28:30.017Z,98631.94
2023-01-19T07:31:33.392Z,98635.16
2023-01-19T07:34:37.188Z,98655.62
2023-01-19T07:37:39.842Z,98677.72
2023-01-19T07:40:42.460Z,98684.09
2023-01-19T07:43:45.001Z,98688.56
2023-01-19T07:46:47.654Z,98677.97
2023-01-19T07:49:50.247Z,98675.34
2023-01-19T07:52:53.757Z,98688.84
2023-01-19T07:55:56.833Z,98684.00
2023-01-19T07:58:59.385Z,98681.25
2023-01-19T08:02:02.141Z,98682.22
2023-01-19T08:05:04.992Z,98680.38
2023-01-19T08:08:08.093Z,98681.31
2023-01-19T08:11:11.619Z,98672.84
2023-01-19T08:14:14.263Z,98667.75
2023-01-19T08:17:17.391Z,98675.44
2023-01-19T08:20:19.977Z,98674.47
2023-01-19T08:23:22.567Z,98671.75
2023-01-19T08:26:32.290Z,98670.72
2023-01-19T08:29:35.179Z,98669.00
2023-01-19T08:32:37.772Z,98680.09
2023-01-19T08:35:41.822Z,98685.13
2023-01-19T08:38:49.855Z,98685.16
2023-01-19T08:41:53.709Z,98697.22
2023-01-19T08:44:58.312Z,98690.31
2023-01-19T08:48:01.698Z,98695.56
2023-01-19T08:51:04.691Z,98699.75
2023-01-19T08:54:07.528Z,98692.94
2023-01-19T08:57:10.254Z,98692.78
2023-01-19T09:00:14.270Z,98692.66
2023-01-19T09:03:17.434Z,98692.00
2023-01-19T09:06:20.112Z,98685.97
2023-01-19T09:09:22.684Z,98681.34
2023-01-19T09:12:25.649Z,98677.84
2023-01-19T09:15:28.305Z,98673.84
2023-01-19T09:18:31.030Z,98672.03
2023-01-19T09:21:33.634Z,98677.09
2023-01-19T09:24:36.905Z,98676.69
2023-01-19T09:27:39.457Z,98694.22
2023-01-19T09:30:42.617Z,98682.00
2023-01-19T09:33:45.338Z,98692.34
2023-01-19T09:36:47.916Z,98693.75
2023-01-19T09:39:50.530Z,98686.25
2023-01-19T09:43:05.218Z,98685.53
2023-01-19T09:46:39.179Z,98693.22
2023-01-19T09:49:46.176Z,98691.13
2023-01-19T09:52:56.358Z,98697.06
2023-01-19T09:55:59.005Z,98699.16
2023-01-19T09:59:01.971Z,98704.00
2023-01-19T10:02:25.837Z,98694.03
2023-01-19T10:05:40.080Z,98693.88
2023-01-19T10:08:54.260Z,98706.56
2023-01-19T10:12:17.949Z,98710.03
2023-01-19T10:15:55.309Z,98697.13
2023-01-19T10:19:32.866Z,98688.31
2023-01-19T10:22:35.862Z,98701.38
2023-01-19T10:25:38.868Z,98708.41
2023-01-19T10:28:41.475Z,98703.25
2023-01-19T10:31:44.048Z,98702.03
2023-01-19T10:34:47.533Z,98707.84
2023-01-19T10:37:51.056Z,98717.28
2023-01-19T10:41:06.826Z,98710.47
2023-01-19T10:44:10.965Z,98719.25
2023-01-19T10:47:17.978Z,98702.19
2023-01-19T10:50:31.760Z,98702.56
2023-01-19T10:53:34.391Z,98706.22
2023-01-19T10:56:37.534Z,98700.41
2023-01-19T10:59:52.162Z,98695.34
2023-01-19T11:02:54.972Z,98692.88
2023-01-19T11:06:25.098Z,98692.03
2023-01-19T11:09:27.746Z,98698.09
2023-01-19T11:12:30.327Z,98717.81
2023-01-19T11:15:48.498Z,98708.62
2023-01-19T11:18:52.235Z,98721.00
2023-01-19T11:22:10.892Z,98724.91
2023-01-19T11:25:28.201Z,98715.78
2023-01-19T11:28:33.451Z,98725.34
2023-01-19T11:31:35.958Z,98729.56
2023-01-19T11:34:39.645Z,98736.22
2023-01-19T11:37:43.339Z,98734.44
2023-01-19T11:40:56.911Z,98743.84
2023-01-19T11:44:06.583Z,98746.00
2023-01-19T11:47:26.858Z,98741.09
2023-01-19T11:50:35.725Z,98733.34
2023-01-19T11:53:38.517Z,98731.13
2023-01-19T11:56:41.108Z,98730.19
2023-01-19T11:59:44.483Z,98725.81
2023-01-19T12:02:47.056Z,98729.19
2023-01-19T12:05:53.023Z,98742.41
2023-01-19T12:09:10.742Z,98751.91
2023-01-19T12:12:30.260Z,98758.00
2023-01-19T12:15:44.822Z,98763.88
2023-01-19T12:18:51.419Z,98781.28
2023-01-19T12:21:54.023Z,98781.06
2023-01-19T12:25:01.557Z,98785.22
2023-01-19T12:28:04.457Z,98789.03
2023-01-19T12:31:08.490Z,98783.75
2023-01-19T12:34:31.524Z,98787.41
2023-01-19T12:37:42.538Z,98793.22
2023-01-19T12:40:46.170Z,98798.09
2023-01-19T12:44:09.230Z,98814.50
2023-01-19T12:47:13.195Z,98818.69
2023-01-19T12:50:17.518Z,98814.66
2023-01-19T12:53:20.576Z,98815.62
2023-01-19T12:56:34.046Z,98816.16
2023-01-19T12:59:37.026Z,98818.78
2023-01-19T13:02:42.626Z,98831.03
2023-01-19T13:05:45.150Z,98836.03
2023-01-19T13:09:00.463Z,98851.19
2023-01-19T13:12:14.936Z,98860.38
2023-01-19T13:15:28.679Z,98867.00
2023-01-19T13:18:32.171Z,98871.41
2023-01-19T13:21:39.886Z,98869.44
2023-01-19T13:25:05.705Z,98876.31
2023-01-19T13:28:09.308Z,98886.88
2023-01-19T13:31:12.549Z,98887.38
2023-01-19T13:34:25.745Z,98905.63
2023-01-19T13:37:36.948Z,98905.63
2023-01-19T13:40:39.778Z,98909.69
2023-01-19T13:43:42.293Z,98908.72
2023-01-19T13:46:45.383Z,98912.03
2023-01-19T13:49:48.679Z,98906.88
2023-01-19T13:52:54.045Z,98905.31
2023-01-19T13:56:07.585Z,98909.91
2023-01-19T13:59:13.817Z,98921.22
2023-01-19T14:02:16.513Z,98930.69
2023-01-19T14:05:24.541Z,98935.09
2023-01-19T14:08:27.206Z,98950.41
2023-01-19T14:11:29.770Z,98947.91
2023-01-19T14:14:34.779Z,98960.50
2023-01-19T14:17:37.405Z,98960.50
2023-01-19T14:20:40.179Z,98955.50
2023-01-19T14:23:45.735Z,98944.34
2023-01-19T14:26:52.986Z,98939.31
2023-01-19T14:29:55.546Z,98959.41
2023-01-19T14:32:58.132Z,98967.72
2023-01-19T14:36:17.895Z,98975.38
2023-01-19T14:39:23.507Z,98984.91
2023-01-19T14:42:33.735Z,98986.69
2023-01-19T14:45:43.009Z,98993.56
2023-01-19T14:48:49.581Z,98998.66
2023-01-19T14:51:52.182Z,98997.84
2023-01-19T14:54:55.114Z,99010.91
2023-01-19T14:57:57.775Z,99022.84
2023-01-19T15:01:00.497Z,99029.72
2023-01-19T15:04:03.694Z,99040.94
2023-01-19T15:07:06.659Z,99046.09
2023-01-19T15:10:18.783Z,99050.34
2023-01-19T15:13:22.297Z,99058.97
2023-01-19T15:16:25.096Z,99060.56
2023-01-19T15:19:27.677Z,99058.88
2023-01-19T15:22:30.261Z,99035.78
2023-01-19T15:25:32.801Z,99035.75
2023-01-19T15:28:35.363Z,99020.28
2023-01-19T15:31:38.512Z,99014.38
2023-01-19T15:34:41.704Z,99033.16
2023-01-19T15:37:44.310Z,99027.22
2023-01-19T15:40:51.230Z,99043.56
2023-01-19T15:43:54.113Z,99053.03
2023-01-19T15:46:57.611Z,99060.03
2023-01-19T15:50:00.341Z,99067.78
2023-01-19T15:53:03.111Z,99083.28
2023-01-19T15:56:06.004Z,99098.66
2023-01-19T15:59:08.788Z,99116.72
2023-01-19T16:02:11.613Z,99117.59
2023-01-19T16:05:14.348Z,99132.19
2023-01-19T16:08:17.192Z,99127.03
2023-01-19T16:11:19.909Z,99133.03
2023-01-19T16:14:22.658Z,99153.72
2023-01-19T16:17:25.295Z,99152.00
2023-01-19T16:20:27.992Z,99157.25
2023-01-19T16:23:30.587Z,99162.31
